Time;durP1;ratioP1;P1;durP2;ratioP2;P2;SDS_P1;SDS_P2;PMS_P1;PMS_P2;Temp;Humidity;BMP_temperature;BMP_pressure;BME280_temperature;BME280_humidity;BME280_pressure;Samples;Min_cycle;Max_cycle;Signal;HPM_P1;HPM_P2
2022/12/09 11:19:00;;;;;;;20.05;13.20;;;;;;;2.07;66.19;98546.50;1088914;46;20031;-78
2022/12/09 11:20:21;;;;;;;20.40;13.32;;;;;;;2.10;66.38;98541.78;1087738;54;20106;-79
2022/12/09 11:21:34;;;;;;;20.42;13.30;;;;;;;2.08;66.25;98543.72;1088006;54;20041;-79
2022/12/09 11:22:40;;;;;;;21.45;13.90;;;;;;;2.15;66.67;98534.31;1087950;54;20030;-80
2022/12/09 11:23:54;;;;;;;18.52;13.15;;;;;;;2.16;66.35;98532.53;1088537;46;20054;-79
2022/12/09 11:25:16;;;;;;;20.45;13.75;;;;;;;2.16;66.36;98535.19;1088354;46;20027;-81
2022/12/09 11:26:36;;;;;;;21.77;15.02;;;;;;;2.14;66.79;98539.75;1088468;46;20072;-80
2022/12/09 11:27:55;;;;;;;21.02;13.95;;;;;;;2.15;66.70;98544.06;1087746;54;20027;-80
2022/12/09 11:29:12;;;;;;;20.70;13.23;;;;;;;2.14;66.26;98545.84;1088043;46;20039;-79
2022/12/09 11:30:24;;;;;;;24.33;15.43;;;;;;;2.10;66.76;98548.84;1087862;54;20070;-80
2022/12/09 11:31:29;;;;;;;19.23;13.90;;;;;;;2.13;66.71;98544.16;1090923;39;20680;-80
2022/12/09 11:32:31;;;;;;;19.08;14.90;;;;;;;2.25;66.53;98539.69;1087886;54;20038;-79
2022/12/09 11:33:38;;;;;;;21.83;14.40;;;;;;;2.27;66.55;98536.91;1087657;54;20727;-78
2022/12/09 11:34:45;;;;;;;20.58;14.60;;;;;;;2.17;66.25;98531.59;1089068;39;20633;-79
2022/12/09 11:35:56;;;;;;;21.13;13.75;;;;;;;2.23;66.47;98538.97;1087644;54;20748;-81
2022/12/09 11:37:01;;;;;;;18.42;12.75;;;;;;;2.26;66.54;98537.88;1087684;54;20030;-78
2022/12/09 11:38:18;;;;;;;19.63;13.45;;;;;;;2.26;66.45;98545.78;1087635;54;20026;-79
2022/12/09 11:39:29;;;;;;;20.33;13.82;;;;;;;2.28;66.35;98542.03;1087588;54;20061;-78
2022/12/09 11:40:34;;;;;;;19.23;13.35;;;;;;;2.32;66.28;98532.91;1087488;54;20776;-81
2022/12/09 11:43:04;;;;;;;20.80;14.60;;;;;;;2.39;66.32;98540.31;1087658;54;20709;-79
2022/12/09 11:44:22;;;;;;;22.02;14.48;;;;;;;2.31;66.10;98533.88;1087568;54;20041;-79
2022/12/09 11:45:31;;;;;;;19.95;14.07;;;;;;;2.33;66.19;98534.59;1087594;54;20086;-80
2022/12/09 11:46:33;;;;;;;18.33;14.30;;;;;;;2.31;66.55;98536.53;1087510;54;20046;-79
2022/12/09 11:47:40;;;;;;;17.42;13.50;;;;;;;2.37;66.51;98531.69;1090107;39;20739;-80
2022/12/09 11:48:48;;;;;;;22.50;14.25;;;;;;;2.39;66.31;98541.16;1087528;54;20054;-78
2022/12/09 11:49:58;;;;;;;26.27;15.43;;;;;;;2.38;66.26;98533.34;1087605;54;20031;-80
2022/12/09 11:51:01;;;;;;;20.13;14.48;;;;;;;2.38;66.42;98530.72;1087492;54;20050;-79
2022/12/09 11:52:25;;;;;;;21.38;13.98;;;;;;;2.32;66.40;98522.38;1087521;54;20090;-79
2022/12/09 11:53:31;;;;;;;20.00;13.93;;;;;;;2.40;66.46;98536.72;1087619;54;20042;-80
2022/12/09 11:54:53;;;;;;;21.48;15.10;;;;;;;2.38;66.44;98523.66;1087876;54;20034;-82
2022/12/09 11:56:02;;;;;;;22.42;13.65;;;;;;;2.37;66.36;98521.97;1088134;54;20057;-83
2022/12/09 11:57:11;;;;;;;21.05;14.80;;;;;;;2.36;66.35;98530.03;1088241;54;20030;-84
2022/12/09 11:58:20;;;;;;;23.27;15.45;;;;;;;2.37;66.61;98524.63;1088328;54;20026;-82
2022/12/09 11:59:28;;;;;;;23.05;16.05;;;;;;;2.35;66.53;98523.91;1088123;54;20033;-81
2022/12/09 12:00:40;;;;;;;22.58;15.43;;;;;;;2.32;66.61;98521.53;1089952;46;20022;-81
2022/12/09 12:01:52;;;;;;;24.00;16.25;;;;;;;2.38;66.58;98523.66;1088155;46;20030;-81
2022/12/09 12:03:04;;;;;;;22.00;14.98;;;;;;;2.44;66.38;98517.84;1087936;54;20053;-81
2022/12/09 12:04:12;;;;;;;24.23;15.43;;;;;;;2.41;66.35;98514.63;1088096;54;20039;-82
2022/12/09 12:05:22;;;;;;;21.08;14.95;;;;;;;2.41;66.56;98512.00;1087882;54;20996;-81
2022/12/09 12:06:31;;;;;;;20.75;14.63;;;;;;;2.45;66.29;98508.16;1087973;54;20034;-81
2022/12/09 12:07:43;;;;;;;21.85;15.73;;;;;;;2.46;66.54;98509.78;1087818;54;20038;-80
2022/12/09 12:08:53;;;;;;;19.38;14.05;;;;;;;2.44;66.48;98509.94;1087966;54;20030;-80
2022/12/09 12:09:57;;;;;;;22.33;14.52;;;;;;;2.45;66.70;98508.16;1088079;54;20041;-81
2022/12/09 12:11:06;;;;;;;18.60;14.07;;;;;;;2.49;66.53;98509.53;1087861;54;20119;-80
2022/12/09 12:12:19;;;;;;;21.33;14.88;;;;;;;2.53;66.47;98510.97;1094511;39;20652;-81
2022/12/09 12:13:29;;;;;;;20.50;14.07;;;;;;;2.64;66.54;98508.25;1087901;54;20049;-80
2022/12/09 12:14:37;;;;;;;20.08;13.90;;;;;;;2.69;66.05;98510.50;1092320;39;20646;-79
2022/12/09 12:15:48;;;;;;;21.77;14.50;;;;;;;2.75;66.10;98503.81;1087650;54;20035;-81
2022/12/09 12:17:00;;;;;;;19.50;13.70;;;;;;;2.78;66.20;98511.50;1087754;46;20704;-80
2022/12/09 12:18:10;;;;;;;18.10;13.18;;;;;;;2.85;66.02;98515.25;1087683;54;20082;-78
2022/12/09 12:19:21;;;;;;;18.42;13.13;;;;;;;2.91;66.00;98506.81;1087259;54;20042;-82
2022/12/09 12:20:42;;;;;;;19.27;14.73;;;;;;;2.80;65.68;98501.63;1087649;54;20685;-79
2022/12/09 12:22:01;;;;;;;18.98;14.60;;;;;;;2.77;66.02;98504.53;1087653;54;20018;-83
2022/12/09 12:34:47;;;;;;;20.27;14.45;;;;;;;2.70;66.66;98504.22;1087639;54;20034;-81
2022/12/09 12:36:03;;;;;;;20.55;13.90;;;;;;;2.73;66.52;98492.59;1087710;54;20034;-80
2022/12/09 12:37:22;;;;;;;19.30;13.98;;;;;;;2.73;66.62;98490.78;1087447;54;20819;-79
2022/12/09 12:38:38;;;;;;;19.00;13.88;;;;;;;2.73;66.66;98495.22;1087163;54;20041;-80
2022/12/09 12:39:57;;;;;;;23.98;14.50;;;;;;;2.78;66.71;98488.59;1087656;54;20038;-83
2022/12/09 12:41:17;;;;;;;24.30;15.48;;;;;;;2.81;66.25;98484.84;1087969;54;20041;-84
2022/12/09 12:42:33;;;;;;;19.90;14.18;;;;;;;2.76;66.71;98494.94;1087815;54;20046;-80
2022/12/09 12:46:48;;;;;;;19.25;13.85;;;;;;;2.81;66.85;98498.03;1087726;54;20041;-81
2022/12/09 12:47:59;;;;;;;21.02;14.40;;;;;;;2.80;66.75;98494.53;1087818;54;20061;-81
2022/12/09 12:49:24;;;;;;;21.58;14.65;;;;;;;2.80;67.17;98489.25;1087655;54;20032;-81
2022/12/09 12:50:53;;;;;;;22.20;15.02;;;;;;;2.88;67.03;98493.88;1087647;54;20038;-83
2022/12/09 12:52:08;;;;;;;21.08;13.27;;;;;;;3.03;66.48;98491.72;1087354;54;20065;-81
2022/12/09 12:53:24;;;;;;;21.23;13.63;;;;;;;3.09;66.48;98490.34;1087156;54;20035;-81
2022/12/09 12:54:38;;;;;;;22.48;15.15;;;;;;;3.05;66.61;98491.56;1087330;54;20131;-81
2022/12/09 12:55:53;;;;;;;22.90;15.80;;;;;;;3.04;66.53;98487.25;1087568;54;20026;-81
2022/12/09 12:57:06;;;;;;;22.30;15.98;;;;;;;3.03;66.42;98488.22;1087727;54;20014;-82
2022/12/09 12:58:14;;;;;;;22.83;15.65;;;;;;;2.89;66.79;98479.72;1087656;54;20038;-81
2022/12/09 12:59:51;;;;;;;;;;;;;;;;;;;;;
2022/12/09 13:01:43;;;;;;;22.38;15.98;;;;;;;2.81;67.39;98487.47;1087943;54;20098;-82
2022/12/09 13:04:46;;;;;;;24.13;16.23;;;;;;;2.77;67.84;98491.34;1087628;54;20038;-84
2022/12/09 13:06:08;;;;;;;24.80;15.73;;;;;;;2.78;67.92;98483.31;1087690;54;20034;-81
2022/12/09 13:07:34;;;;;;;23.67;15.82;;;;;;;2.84;68.01;98489.84;1090440;39;21073;-82
2022/12/09 13:08:50;;;;;;;22.30;15.48;;;;;;;2.86;68.02;98498.47;1087544;54;20039;-80
2022/12/09 13:09:59;;;;;;;21.33;15.85;;;;;;;2.88;67.97;98493.06;1087656;54;20030;-81
2022/12/09 13:11:09;;;;;;;22.58;16.70;;;;;;;2.93;68.08;98502.22;1087668;54;20061;-79
2022/12/09 13:12:18;;;;;;;21.30;15.50;;;;;;;3.00;67.87;98496.44;1087522;54;20046;-79
2022/12/09 13:13:26;;;;;;;21.77;15.80;;;;;;;3.05;67.89;98492.41;1087313;54;20046;-79
2022/12/09 13:14:55;;;;;;;27.90;17.67;;;;;;;2.99;67.63;98489.47;1087424;54;20039;-79
2022/12/09 13:16:03;;;;;;;22.38;16.42;;;;;;;3.04;67.66;98498.66;1087347;54;20026;-80
2022/12/09 13:17:13;;;;;;;21.48;16.20;;;;;;;3.09;67.64;98492.97;1087355;54;20031;-79
2022/12/09 13:18:22;;;;;;;23.40;16.55;;;;;;;3.12;67.36;98501.47;1087504;54;20038;-80
2022/12/09 13:19:30;;;;;;;25.08;18.10;;;;;;;3.03;67.46;98496.13;1087438;54;20030;-79
2022/12/09 13:20:45;;;;;;;24.63;17.48;;;;;;;3.00;67.28;98499.06;1087528;54;20058;-79
2022/12/09 13:21:50;;;;;;;25.17;17.65;;;;;;;2.93;67.71;98502.22;1087467;54;20037;-80
2022/12/09 13:23:03;;;;;;;26.75;19.05;;;;;;;2.86;68.12;98490.53;1087550;54;20042;-81
2022/12/09 13:24:20;;;;;;;24.70;17.08;;;;;;;2.90;68.17;98505.16;1087456;54;21094;-79
2022/12/09 13:25:38;;;;;;;27.42;18.90;;;;;;;2.86;68.11;98495.81;1087498;54;20022;-79
2022/12/09 13:26:58;;;;;;;24.05;18.80;;;;;;;2.79;68.23;98486.78;1087507;54;20039;-79
2022/12/09 13:30:15;;;;;;;30.42;19.95;;;;;;;2.71;68.56;98491.88;1087812;54;20023;-83
2022/12/09 13:31:27;;;;;;;28.60;18.77;;;;;;;2.73;68.65;98489.94;1087832;54;20033;-82
2022/12/09 13:33:20;;;;;;;25.67;17.42;;;;;;;2.74;68.37;98495.09;1087912;54;20035;-81
2022/12/09 13:34:55;;;;;;;26.33;18.38;;;;;;;2.73;68.65;98497.88;1086986;54;20039;-79
2022/12/09 13:36:08;;;;;;;26.45;19.00;;;;;;;2.77;68.61;98491.34;1087940;54;20053;-81
2022/12/09 13:37:34;;;;;;;27.63;18.52;;;;;;;2.84;68.38;98495.09;1088132;54;20078;-80
2022/12/09 13:40:35;;;;;;;28.15;19.23;;;;;;;2.80;68.87;98496.38;1087630;54;20030;-79
2022/12/09 13:43:14;;;;;;;25.98;19.08;;;;;;;2.77;68.74;98492.19;1087050;54;20042;-79
2022/12/09 13:44:18;;;;;;;26.10;18.77;;;;;;;2.81;68.93;98500.69;1088288;39;20898;-79
2022/12/09 13:45:34;;;;;;;29.25;19.52;;;;;;;2.84;68.88;98496.94;1092609;39;20574;-81
2022/12/09 13:46:41;;;;;;;28.63;20.23;;;;;;;2.85;68.74;98495.97;1087323;54;20035;-80
2022/12/09 13:47:43;;;;;;;28.30;20.27;;;;;;;2.81;68.92;98505.94;1087301;54;20030;-80
2022/12/09 13:48:49;;;;;;;26.67;19.58;;;;;;;2.83;68.83;98495.25;1087334;54;20048;-82
2022/12/09 13:49:55;;;;;;;26.65;18.88;;;;;;;2.94;68.56;98509.19;1087379;54;20061;-81
2022/12/09 13:51:04;;;;;;;25.85;17.60;;;;;;;2.91;68.54;98503.34;1087199;54;20057;-79
2022/12/09 13:52:13;;;;;;;25.92;18.15;;;;;;;2.95;68.58;98497.66;1087475;54;20061;-79
2022/12/09 13:53:29;;;;;;;26.67;18.50;;;;;;;2.94;68.47;98506.53;1087408;54;20054;-82
2022/12/09 13:54:35;;;;;;;26.67;19.17;;;;;;;2.93;68.80;98512.78;1087379;54;20098;-81
2022/12/09 13:55:51;;;;;;;32.95;19.42;;;;;;;2.89;68.79;98511.41;1089150;39;20448;-80
2022/12/09 13:57:13;;;;;;;29.60;18.73;;;;;;;2.92;68.61;98511.13;1086306;54;20034;-78
2022/12/09 13:58:38;;;;;;;26.30;17.95;;;;;;;2.84;68.68;98505.66;1087360;54;20048;-85
2022/12/09 13:59:45;;;;;;;26.00;18.33;;;;;;;2.94;68.85;98503.06;1087334;54;20053;-81
2022/12/09 14:01:02;;;;;;;24.55;17.75;;;;;;;2.91;68.70;98498.06;1087359;54;20039;-80
2022/12/09 14:02:22;;;;;;;24.40;17.92;;;;;;;2.94;68.65;98498.63;1087397;54;20030;-82
2022/12/09 14:03:28;;;;;;;26.42;18.40;;;;;;;2.99;68.59;98500.03;1087918;54;20045;-83
2022/12/09 14:04:35;;;;;;;24.67;18.48;;;;;;;3.04;68.48;98497.81;1088089;54;20030;-83
2022/12/09 14:05:40;;;;;;;24.48;17.05;;;;;;;3.12;68.22;98501.47;1088979;46;20023;-83
2022/12/09 14:06:56;;;;;;;21.38;15.35;;;;;;;3.11;68.18;98501.63;1087934;54;20037;-82
2022/12/09 14:08:05;;;;;;;24.17;16.63;;;;;;;3.07;68.35;98498.38;1088189;54;20045;-85
2022/12/09 14:09:28;;;;;;;21.77;17.00;;;;;;;3.07;68.40;98497.56;1088345;54;20030;-85
2022/12/09 14:10:46;;;;;;;26.92;18.55;;;;;;;3.09;68.31;98500.91;1087931;54;20034;-88
2022/12/09 14:11:49;;;;;;;25.05;18.27;;;;;;;3.00;68.70;98499.06;1087479;54;20053;-80
2022/12/09 14:13:06;;;;;;;27.25;18.90;;;;;;;3.00;68.78;98502.53;1087340;54;20046;-80
2022/12/09 14:14:40;;;;;;;26.05;19.77;;;;;;;2.92;68.61;98503.22;1088053;39;20696;-78
2022/12/09 14:15:45;;;;;;;27.20;18.52;;;;;;;2.95;68.54;98497.66;1087587;54;20038;-80
2022/12/09 14:16:50;;;;;;;24.13;17.00;;;;;;;2.97;68.73;98501.00;1087432;54;20043;-80
2022/12/09 14:18:05;;;;;;;25.25;18.33;;;;;;;3.03;68.41;98498.78;1087550;54;20034;-80
2022/12/09 14:19:39;;;;;;;25.55;18.50;;;;;;;3.10;68.46;98499.94;1087630;54;20043;-80
2022/12/09 14:20:44;;;;;;;27.77;18.02;;;;;;;3.14;68.08;98503.13;1087285;54;20069;-80
2022/12/09 14:22:23;;;;;;;26.33;18.75;;;;;;;3.00;68.10;98502.53;1087462;54;20030;-79
2022/12/09 14:23:27;;;;;;;26.40;18.83;;;;;;;2.96;68.71;98495.88;1087300;54;20043;-80
2022/12/09 14:24:32;;;;;;;27.05;18.65;;;;;;;2.95;68.68;98499.47;1087584;54;20037;-80
2022/12/09 14:26:04;;;;;;;28.15;19.75;;;;;;;2.89;68.86;98500.84;1087561;54;20060;-79
2022/12/09 14:27:26;;;;;;;25.85;18.20;;;;;;;2.88;68.71;98508.91;1087505;54;20714;-79
2022/12/09 14:28:56;;;;;;;27.90;19.48;;;;;;;2.87;68.78;98513.34;1087581;54;20042;-81
2022/12/09 14:30:02;;;;;;;27.20;18.58;;;;;;;2.94;69.00;98503.91;1087448;54;20038;-80
2022/12/09 14:31:05;;;;;;;28.02;19.40;;;;;;;2.96;69.09;98512.53;1087339;54;20038;-79
2022/12/09 14:32:23;;;;;;;27.45;19.13;;;;;;;3.01;69.04;98503.38;1087595;54;20037;-79
2022/12/09 14:33:30;;;;;;;24.65;17.58;;;;;;;3.01;68.84;98496.28;1087652;54;20030;-80
2022/12/09 14:34:38;;;;;;;24.48;18.15;;;;;;;3.09;68.73;98500.91;1089581;46;20041;-79
2022/12/09 14:35:52;;;;;;;27.52;19.38;;;;;;;3.10;68.52;98499.94;1087576;54;20030;-79
2022/12/09 14:37:03;;;;;;;25.77;18.35;;;;;;;3.14;68.40;98508.41;1088104;54;20031;-84
2022/12/09 14:38:22;;;;;;;23.88;16.83;;;;;;;3.20;68.22;98510.50;1088280;54;20037;-83
2022/12/09 14:39:29;;;;;;;27.20;19.63;;;;;;;3.13;68.51;98499.66;1088431;54;20019;-86
2022/12/09 14:41:04;;;;;;;26.42;18.35;;;;;;;3.07;69.15;98502.84;1088371;54;20011;-83
2022/12/09 14:42:13;;;;;;;26.67;19.40;;;;;;;3.10;68.90;98513.13;1087871;54;20035;-84
2022/12/09 14:43:37;;;;;;;27.10;19.20;;;;;;;3.04;69.07;98513.66;1088353;54;20094;-84
2022/12/09 14:44:46;;;;;;;24.52;17.77;;;;;;;3.09;68.90;98511.47;1088370;54;20029;-81
2022/12/09 14:45:54;;;;;;;26.95;18.85;;;;;;;3.00;69.46;98522.84;1088315;54;20038;-82
2022/12/09 14:47:26;;;;;;;26.73;20.63;;;;;;;3.01;69.50;98520.03;1094033;39;20719;-82
2022/12/09 14:48:32;;;;;;;27.55;20.55;;;;;;;2.96;69.84;98520.44;1088531;54;20022;-82
2022/12/09 14:49:57;;;;;;;;;;;;;;;;;;;;;
2022/12/09 14:53:31;;;;;;;25.52;18.13;;;;;;;3.01;69.89;98520.03;1092996;46;20026;-83
2022/12/09 14:54:38;;;;;;;26.10;19.33;;;;;;;2.97;69.80;98519.47;1090820;46;20078;-85
2022/12/09 14:55:41;;;;;;;25.25;18.65;;;;;;;2.99;69.80;98521.16;1087823;54;20034;-82
2022/12/09 14:56:53;;;;;;;26.30;19.02;;;;;;;3.01;69.99;98529.78;1087838;54;20018;-85
2022/12/09 14:58:00;;;;;;;26.08;19.15;;;;;;;2.98;70.53;98525.59;1087786;54;20034;-83
2022/12/09 14:59:05;;;;;;;28.02;19.55;;;;;;;3.01;70.39;98527.16;1087596;54;20034;-82
2022/12/09 15:00:27;;;;;;;27.58;19.92;;;;;;;2.90;70.78;98526.28;1087698;54;20034;-82
2022/12/09 15:01:32;;;;;;;25.77;19.60;;;;;;;2.90;70.71;98528.91;1087762;46;20037;-82
2022/12/09 15:02:36;;;;;;;27.45;20.58;;;;;;;2.96;70.83;98528.38;1087744;54;20791;-84
2022/12/09 15:03:40;;;;;;;25.02;18.83;;;;;;;3.00;70.58;98528.94;1087863;54;20030;-84
2022/12/09 15:04:45;;;;;;;25.60;18.92;;;;;;;3.02;70.67;98531.47;1087458;54;20034;-81
2022/12/09 15:06:01;;;;;;;26.42;20.10;;;;;;;2.95;70.55;98539.06;1087465;54;20022;-80
2022/12/09 15:07:13;;;;;;;31.13;21.23;;;;;;;2.90;71.17;98542.13;1090746;46;20041;-83
2022/12/09 15:10:35;;;;;;;27.60;20.70;;;;;;;2.91;70.99;98546.44;1087774;54;20031;-80
2022/12/09 15:11:39;;;;;;;26.67;19.77;;;;;;;2.89;71.11;98545.72;1087824;54;20042;-80
2022/12/09 15:12:48;;;;;;;26.65;19.95;;;;;;;2.87;71.26;98549.47;1087543;54;20026;-78
2022/12/09 15:13:55;;;;;;;26.52;19.20;;;;;;;2.91;71.18;98541.16;1086972;54;20027;-79
2022/12/09 15:15:03;;;;;;;26.77;19.42;;;;;;;3.00;70.72;98543.97;1087301;54;20030;-79
2022/12/09 15:16:10;;;;;;;27.08;20.05;;;;;;;3.01;70.83;98545.63;1087772;54;20041;-80
2022/12/09 15:17:22;;;;;;;26.90;19.75;;;;;;;2.97;70.65;98548.53;1087546;54;20756;-78
2022/12/09 15:18:29;;;;;;;26.58;20.17;;;;;;;3.00;71.11;98544.78;1087304;54;20038;-80
2022/12/09 15:19:32;;;;;;;26.60;20.17;;;;;;;3.02;70.99;98549.94;1087579;54;20094;-80
2022/12/09 15:20:38;;;;;;;26.90;20.15;;;;;;;3.01;70.57;98540.34;1087571;54;20035;-79
2022/12/09 15:21:47;;;;;;;29.02;20.88;;;;;;;2.96;71.07;98551.31;1088184;39;20424;-80
2022/12/09 15:22:53;;;;;;;28.02;19.83;;;;;;;2.95;70.83;98558.38;1087651;54;20050;-80
2022/12/09 15:23:57;;;;;;;26.80;20.08;;;;;;;3.02;70.81;98558.69;1087622;54;20064;-81
2022/12/09 15:25:01;;;;;;;29.85;21.75;;;;;;;2.99;71.06;98552.84;1087656;54;20041;-81
2022/12/09 15:26:08;;;;;;;27.75;20.02;;;;;;;2.97;70.72;98552.97;1087895;54;20069;-81
2022/12/09 15:27:19;;;;;;;28.02;21.00;;;;;;;2.96;70.74;98549.50;1087798;54;20077;-81
2022/12/09 15:28:27;;;;;;;30.17;21.48;;;;;;;2.94;70.90;98554.06;1087827;54;20034;-81
2022/12/09 15:29:33;;;;;;;27.92;19.85;;;;;;;2.99;70.85;98552.84;1087966;54;20057;-81
2022/12/09 15:30:42;;;;;;;28.08;20.33;;;;;;;3.05;70.99;98555.78;1087873;54;20034;-80
2022/12/09 15:31:48;;;;;;;27.15;20.10;;;;;;;3.09;70.57;98559.81;1087856;54;20040;-80
2022/12/09 15:34:16;;;;;;;28.13;21.38;;;;;;;2.95;70.71;98547.81;1088193;54;20057;-81
2022/12/09 15:35:33;;;;;;;28.70;21.02;;;;;;;2.88;71.14;98557.25;1087958;54;20046;-80
2022/12/09 15:36:53;;;;;;;27.00;20.67;;;;;;;2.86;71.37;98547.78;1088796;39;20699;-80
2022/12/09 15:38:00;;;;;;;31.60;22.23;;;;;;;2.84;71.28;98557.63;1088068;54;20031;-81
2022/12/09 15:39:20;;;;;;;29.80;21.25;;;;;;;2.93;71.39;98562.13;1088029;54;20034;-80
2022/12/09 15:40:34;;;;;;;27.70;19.45;;;;;;;2.99;71.06;98552.84;1088036;54;20018;-86
2022/12/09 15:43:04;;;;;;;27.90;19.45;;;;;;;3.01;70.97;98561.47;1088042;54;20042;-81
2022/12/09 15:44:19;;;;;;;25.92;18.95;;;;;;;3.10;70.60;98563.31;1087959;54;20019;-79
2022/12/09 15:52:04;;;;;;;25.90;20.15;;;;;;;3.04;70.90;98561.19;1087373;54;20035;-82
2022/12/09 16:05:05;;;;;;;27.27;18.40;;;;;;;3.00;71.19;98573.81;1086830;54;20038;-78
2022/12/09 16:06:11;;;;;;;25.05;19.10;;;;;;;3.08;70.67;98574.00;1087374;54;20031;-78
2022/12/09 16:07:16;;;;;;;25.13;18.48;;;;;;;3.13;70.70;98568.31;1086635;54;20595;-78
2022/12/09 16:08:21;;;;;;;26.42;18.83;;;;;;;3.18;70.61;98567.91;1087232;46;20046;-79
2022/12/09 16:09:23;;;;;;;24.70;17.75;;;;;;;3.22;70.37;98562.22;1086379;54;20039;-79
2022/12/09 16:10:46;;;;;;;24.65;18.15;;;;;;;3.20;70.30;98569.47;1087139;54;20041;-79
2022/12/09 16:11:52;;;;;;;25.40;18.15;;;;;;;3.15;70.50;98566.38;1087425;54;20034;-78
2022/12/09 16:13:08;;;;;;;28.52;20.95;;;;;;;3.11;70.56;98571.09;1087029;54;20045;-79
2022/12/09 16:14:12;;;;;;;31.90;20.45;;;;;;;3.06;70.60;98567.19;1086702;54;20072;-78
2022/12/09 16:15:47;;;;;;;32.50;20.80;;;;;;;2.98;70.59;98567.81;1087094;54;20030;-79
2022/12/09 16:16:56;;;;;;;30.10;20.70;;;;;;;2.93;70.86;98567.41;1087456;54;20061;-81
2022/12/09 16:18:01;;;;;;;25.88;19.65;;;;;;;2.93;71.06;98575.31;1087883;54;20041;-81
2022/12/09 16:19:05;;;;;;;26.15;19.48;;;;;;;3.03;70.91;98570.06;1093258;46;20031;-82
2022/12/09 16:20:34;;;;;;;24.33;18.35;;;;;;;3.06;70.88;98570.66;1088079;54;20036;-81
2022/12/09 16:21:39;;;;;;;26.80;19.50;;;;;;;3.05;70.67;98563.72;1088154;54;20030;-80
2022/12/09 16:22:42;;;;;;;27.08;19.15;;;;;;;3.13;70.57;98576.22;1089442;46;20034;-78
2022/12/09 16:23:50;;;;;;;28.10;20.00;;;;;;;3.12;70.62;98571.91;1087684;54;20034;-81
2022/12/09 16:25:03;;;;;;;24.38;17.55;;;;;;;3.15;70.47;98566.38;1087528;54;20039;-79
2022/12/09 16:26:20;;;;;;;23.70;17.48;;;;;;;3.20;70.28;98563.34;1087773;39;20633;-78
2022/12/09 16:27:27;;;;;;;25.35;16.48;;;;;;;3.25;70.40;98564.59;1086527;54;20026;-78
2022/12/09 16:28:32;;;;;;;26.42;18.50;;;;;;;3.19;70.13;98574.88;1086106;54;20042;-79
2022/12/09 16:29:37;;;;;;;29.48;20.30;;;;;;;3.19;70.00;98567.78;1087100;54;20031;-82
2022/12/09 16:30:47;;;;;;;29.77;19.33;;;;;;;3.06;70.33;98575.94;1087539;54;20031;-82
2022/12/09 16:32:23;;;;;;;27.85;19.95;;;;;;;3.00;70.34;98575.63;1087448;54;20061;-79
2022/12/09 16:33:29;;;;;;;28.55;20.10;;;;;;;3.01;70.50;98572.03;1087441;54;20077;-81
2022/12/09 16:34:31;;;;;;;28.27;20.65;;;;;;;3.01;70.84;98572.84;1088749;39;20215;-81
2022/12/09 16:35:42;;;;;;;31.40;20.77;;;;;;;3.08;70.30;98578.44;1087523;54;20019;-81
2022/12/09 16:36:56;;;;;;;26.60;18.98;;;;;;;3.03;70.45;98575.34;1087695;54;20046;-81
2022/12/09 16:38:21;;;;;;;26.63;19.40;;;;;;;3.02;70.76;98573.72;1087500;46;20038;-81
2022/12/09 16:39:36;;;;;;;29.33;20.02;;;;;;;2.95;70.76;98578.69;1087465;54;20034;-79
2022/12/09 16:40:57;;;;;;;27.33;19.75;;;;;;;2.96;70.95;98575.88;1087376;54;20053;-80
2022/12/09 16:42:02;;;;;;;25.73;18.85;;;;;;;2.97;71.08;98576.75;1087523;54;20049;-79
2022/12/09 16:43:22;;;;;;;31.02;22.02;;;;;;;2.89;71.14;98573.91;1087482;54;20031;-79
2022/12/09 16:44:31;;;;;;;28.92;21.05;;;;;;;2.86;71.42;98569.72;1087350;54;20046;-79
2022/12/09 16:45:39;;;;;;;25.80;19.77;;;;;;;2.87;71.40;98575.88;1087494;54;20089;-78
2022/12/09 16:46:43;;;;;;;31.40;21.60;;;;;;;2.85;71.55;98573.34;1087386;54;20038;-80
2022/12/09 16:47:48;;;;;;;27.27;20.75;;;;;;;2.84;71.48;98576.94;1087159;54;20061;-79
2022/12/09 16:48:52;;;;;;;29.80;21.75;;;;;;;2.78;71.89;98570.41;1086786;54;20042;-79
2022/12/09 16:49:56;;;;;;;27.42;19.52;;;;;;;2.81;72.00;98574.56;1087327;54;20149;-79
2022/12/09 16:51:11;;;;;;;27.88;19.48;;;;;;;2.83;71.80;98571.78;1087449;54;20053;-79
2022/12/09 16:52:22;;;;;;;29.58;20.95;;;;;;;2.87;71.52;98576.69;1088021;46;20030;-82
2022/12/09 16:53:27;;;;;;;27.92;20.42;;;;;;;2.87;71.80;98575.88;1089603;39;20583;-81
2022/12/09 16:54:31;;;;;;;28.17;20.83;;;;;;;2.90;71.83;98576.44;1088146;46;20046;-80
2022/12/09 16:55:35;;;;;;;28.00;20.92;;;;;;;2.88;71.90;98580.19;1087427;54;20011;-82
2022/12/09 16:56:40;;;;;;;30.88;21.65;;;;;;;2.78;71.84;98578.31;1087507;54;20035;-79
2022/12/09 16:57:41;;;;;;;27.42;20.25;;;;;;;2.85;71.92;98583.88;1087397;54;20030;-80
2022/12/09 16:58:46;;;;;;;28.15;20.85;;;;;;;2.84;71.84;98582.22;1087822;46;20098;-80
2022/12/09 16:59:52;;;;;;;26.95;21.13;;;;;;;2.84;71.83;98590.13;1087037;54;20019;-81
2022/12/09 17:00:54;;;;;;;28.38;20.80;;;;;;;2.81;71.94;98588.59;1087428;54;20658;-78
2022/12/09 17:01:58;;;;;;;27.77;20.33;;;;;;;2.91;71.68;98593.94;1087261;54;20030;-79
2022/12/09 17:03:08;;;;;;;31.63;20.48;;;;;;;2.86;71.63;98593.47;1087328;54;21161;-80
2022/12/09 17:04:13;;;;;;;28.55;20.50;;;;;;;2.76;71.94;98592.59;1087512;54;20876;-83
2022/12/09 17:05:18;;;;;;;27.15;20.17;;;;;;;2.73;72.31;98595.50;1087503;54;20030;-79
2022/12/09 17:06:22;;;;;;;31.25;21.50;;;;;;;2.69;72.34;98594.09;1090380;39;20577;-78
2022/12/09 17:07:26;;;;;;;31.40;22.02;;;;;;;2.67;72.52;98590.75;1087190;54;20037;-81
2022/12/09 17:08:28;;;;;;;28.38;20.58;;;;;;;2.72;72.24;98596.47;1088512;46;20018;-78
2022/12/09 17:11:47;;;;;;;29.35;22.00;;;;;;;2.81;72.35;98603.63;1087317;54;20059;-79
2022/12/09 17:12:52;;;;;;;27.75;19.30;;;;;;;2.80;72.01;98608.03;1087610;54;20991;-80
2022/12/09 17:13:56;;;;;;;31.38;20.35;;;;;;;2.80;72.17;98608.03;1087372;54;20038;-79
2022/12/09 17:15:00;;;;;;;27.73;20.02;;;;;;;2.85;72.00;98605.00;1087505;54;20032;-80
2022/12/09 17:16:03;;;;;;;25.63;19.38;;;;;;;2.88;71.92;98594.19;1087548;54;20057;-80
2022/12/09 17:17:08;;;;;;;26.10;20.02;;;;;;;2.91;71.92;98601.88;1087494;54;20579;-79
2022/12/09 17:18:10;;;;;;;29.23;20.33;;;;;;;2.85;71.89;98606.81;1087519;54;20038;-79
2022/12/09 17:19:14;;;;;;;30.13;20.65;;;;;;;2.78;72.04;98609.13;1087458;54;21145;-79
2022/12/09 17:20:16;;;;;;;27.75;20.55;;;;;;;2.78;72.09;98606.50;1087444;54;20049;-79
2022/12/09 17:21:20;;;;;;;28.35;19.75;;;;;;;2.88;71.93;98610.03;1088879;39;20640;-79
2022/12/09 17:22:25;;;;;;;26.52;18.90;;;;;;;2.90;71.84;98607.25;1087348;54;20062;-82
2022/12/09 17:23:30;;;;;;;27.33;19.35;;;;;;;2.92;71.77;98597.41;1087309;54;20034;-79
2022/12/09 17:24:34;;;;;;;28.20;19.40;;;;;;;2.92;71.91;98598.25;1087411;54;20058;-79
2022/12/09 17:25:36;;;;;;;32.33;21.50;;;;;;;2.89;71.64;98606.44;1087478;54;20721;-80
2022/12/09 17:26:40;;;;;;;28.50;21.30;;;;;;;2.88;72.00;98604.75;1087519;54;20037;-79
2022/12/09 17:27:44;;;;;;;29.70;20.75;;;;;;;2.94;71.70;98598.94;1087592;54;20034;-82
2022/12/09 17:28:48;;;;;;;32.53;20.88;;;;;;;2.92;71.74;98600.91;1087397;54;20039;-79
2022/12/09 17:29:52;;;;;;;27.40;20.08;;;;;;;2.91;71.57;98601.88;1087540;54;20057;-80
2022/12/09 17:30:54;;;;;;;27.27;19.70;;;;;;;2.93;71.69;98601.72;1087554;47;20038;-80
2022/12/09 17:31:58;;;;;;;25.92;19.10;;;;;;;3.00;71.54;98597.59;1087454;54;20037;-80
2022/12/09 17:33:00;;;;;;;26.27;18.70;;;;;;;3.00;71.39;98602.84;1089389;47;20042;-79
2022/12/09 17:34:07;;;;;;;25.27;19.10;;;;;;;2.99;71.41;98603.00;1087528;54;20045;-79
2022/12/09 17:35:14;;;;;;;25.33;19.27;;;;;;;2.95;71.23;98599.78;1090434;39;20634;-81
2022/12/09 17:36:20;;;;;;;23.67;17.98;;;;;;;3.00;71.39;98602.84;1087605;54;20042;-81
2022/12/09 17:37:24;;;;;;;23.67;17.73;;;;;;;3.07;71.23;98604.00;1087765;54;20034;-84
2022/12/09 17:38:29;;;;;;;26.02;19.48;;;;;;;3.01;70.58;98612.47;1088029;54;20038;-80
2022/12/09 17:39:33;;;;;;;25.23;18.63;;;;;;;3.01;71.30;98609.00;1087786;54;20030;-78
2022/12/09 17:40:36;;;;;;;29.08;21.33;;;;;;;2.91;71.16;98601.88;1087880;47;20038;-81
2022/12/09 17:41:41;;;;;;;26.70;19.83;;;;;;;2.93;71.25;98604.38;1088137;54;20122;-82